createdAt,value
2018-06-09T00:03:01.197Z,53.90
2018-06-09T00:07:05.052Z,53.80
2018-06-09T00:11:08.707Z,53.90
2018-06-09T00:15:12.341Z,54.10
2018-06-09T00:19:15.997Z,54.40
2018-06-09T00:23:19.676Z,54.70
2018-06-09T00:31:26.667Z,55.30
2018-06-09T00:35:30.277Z,55.20
2018-06-09T00:39:33.939Z,55.10
2018-06-09T00:43:37.598Z,55.40
2018-06-09T00:47:41.272Z,55.10
2018-06-09T00:51:44.891Z,55.40
2018-06-09T00:55:48.568Z,55.50
2018-06-09T00:59:52.244Z,55.40
2018-06-09T01:03:55.907Z,55.40
2018-06-09T01:07:59.615Z,55.70
2018-06-09T01:12:03.245Z,55.60
2018-06-09T01:16:06.900Z,55.30
2018-06-09T01:20:10.629Z,55.10
2018-06-09T01:24:14.299Z,55.20
2018-06-09T01:28:17.922Z,55.30
2018-06-09T01:32:21.589Z,55.60
2018-06-09T01:36:25.283Z,55.30
2018-06-09T01:40:28.987Z,55.70
2018-06-09T01:44:32.637Z,55.90
2018-06-09T01:48:36.271Z,57.00
2018-06-09T01:52:39.960Z,56.50
2018-06-09T01:56:43.601Z,55.90
2018-06-09T02:00:47.251Z,55.70
2018-06-09T02:04:50.920Z,56.20
2018-06-09T02:08:54.587Z,56.20
2018-06-09T02:12:58.256Z,56.00
2018-06-09T02:17:01.917Z,55.90
2018-06-09T02:21:05.672Z,56.10
2018-06-09T02:25:09.288Z,55.70
2018-06-09T02:29:12.939Z,56.10
2018-06-09T02:33:16.583Z,56.60
2018-06-09T02:37:20.324Z,56.40
2018-06-09T02:41:23.975Z,56.00
2018-06-09T02:45:27.607Z,56.20
2018-06-09T02:49:31.321Z,56.10
2018-06-09T02:53:35.022Z,56.20
2018-06-09T02:57:38.698Z,56.10
2018-06-09T03:01:42.463Z,56.10
2018-06-09T03:05:46.082Z,56.20
2018-06-09T03:09:49.778Z,56.10
2018-06-09T03:13:53.447Z,56.10
2018-06-09T03:17:57.089Z,56.00
2018-06-09T03:22:00.709Z,56.10
2018-06-09T03:26:04.363Z,55.90
2018-06-09T03:30:08.110Z,56.00
2018-06-09T03:34:11.775Z,55.90
2018-06-09T03:38:15.416Z,56.00
2018-06-09T03:42:19.047Z,56.30
2018-06-09T03:46:22.716Z,56.50
2018-06-09T03:50:26.371Z,57.10
2018-06-09T03:54:30.027Z,56.60
2018-06-09T03:58:33.678Z,57.10
2018-06-09T04:02:37.313Z,57.60
2018-06-09T04:06:41.006Z,56.80
2018-06-09T04:10:44.680Z,56.70
2018-06-09T04:14:48.388Z,56.50
2018-06-09T04:18:54.805Z,56.70
2018-06-09T04:22:58.448Z,56.30
2018-06-09T04:27:02.132Z,57.50
2018-06-09T04:31:05.801Z,57.50
2018-06-09T04:35:09.479Z,57.10
2018-06-09T04:39:13.093Z,57.50
2018-06-09T04:43:16.745Z,57.20
2018-06-09T04:47:20.419Z,57.40
2018-06-09T04:51:24.157Z,57.20
2018-06-09T04:55:27.799Z,57.10
2018-06-09T04:59:31.588Z,57.10
2018-06-09T05:03:35.200Z,57.10
2018-06-09T05:07:38.885Z,57.00
2018-06-09T05:11:42.559Z,57.40
2018-06-09T05:15:46.212Z,57.00
2018-06-09T05:19:49.861Z,57.10
2018-06-09T05:23:53.495Z,57.30
2018-06-09T05:27:57.196Z,57.40
2018-06-09T05:32:00.839Z,57.30
2018-06-09T05:36:04.543Z,57.20
2018-06-09T05:40:08.208Z,57.40
2018-06-09T05:44:11.838Z,57.20
2018-06-09T05:48:15.492Z,57.60
2018-06-09T05:52:19.150Z,57.60
2018-06-09T05:56:22.854Z,57.60
2018-06-09T06:00:26.502Z,57.50
2018-06-09T06:04:30.127Z,57.60
2018-06-09T06:08:33.815Z,57.60
2018-06-09T06:12:37.480Z,58.50
2018-06-09T06:16:41.144Z,57.80
2018-06-09T06:20:44.815Z,58.40
2018-06-09T06:24:48.443Z,58.10
2018-06-09T06:28:52.103Z,58.00
2018-06-09T06:32:55.771Z,57.90
2018-06-09T06:36:59.488Z,57.80
2018-06-09T06:41:03.220Z,57.70
2018-06-09T06:45:06.978Z,57.70
2018-06-09T06:49:10.543Z,57.60
2018-06-09T06:53:14.196Z,57.80
2018-06-09T06:57:17.836Z,57.90
2018-06-09T07:01:21.479Z,57.80
2018-06-09T07:05:25.164Z,59.40
2018-06-09T07:09:28.865Z,59.10
2018-06-09T07:13:32.553Z,59.20
2018-06-09T07:17:36.199Z,59.80
2018-06-09T07:21:39.912Z,59.40
2018-06-09T07:25:43.531Z,59.50
2018-06-09T07:29:47.219Z,58.90
2018-06-09T07:33:50.851Z,58.20
2018-06-09T07:37:54.508Z,58.00
2018-06-09T07:41:58.189Z,57.60
2018-06-09T07:46:01.817Z,57.60
2018-06-09T07:50:05.544Z,57.50
2018-06-09T07:54:09.669Z,57.30
2018-06-09T07:58:13.411Z,57.50
2018-06-09T08:02:17.069Z,57.60
2018-06-09T08:06:20.745Z,57.70
2018-06-09T08:10:24.413Z,57.60
2018-06-09T08:14:28.119Z,57.80
2018-06-09T08:18:31.777Z,58.00
2018-06-09T08:22:35.423Z,58.10
2018-06-09T08:26:39.078Z,58.00
2018-06-09T08:30:42.807Z,58.40
2018-06-09T08:34:46.454Z,58.00
2018-06-09T08:38:50.124Z,59.30
2018-06-09T08:42:53.926Z,58.70
2018-06-09T08:46:57.602Z,59.70
2018-06-09T08:51:01.244Z,59.50
2018-06-09T08:55:04.937Z,59.00
2018-06-09T08:59:08.596Z,58.60
2018-06-09T09:03:12.283Z,57.70
2018-06-09T09:07:15.977Z,57.60
2018-06-09T09:11:19.669Z,56.90
2018-06-09T09:15:23.329Z,56.80
2018-06-09T09:19:26.996Z,56.60
2018-06-09T09:23:30.643Z,56.60
2018-06-09T09:27:34.287Z,56.60
2018-06-09T09:35:41.321Z,56.30
2018-06-09T09:39:46.228Z,56.30
2018-06-09T09:43:49.881Z,56.30
2018-06-09T09:47:53.580Z,56.40
2018-06-09T09:51:57.248Z,56.40
2018-06-09T09:56:00.918Z,56.10
2018-06-09T10:00:04.655Z,55.50
2018-06-09T10:04:08.326Z,56.00
2018-06-09T10:08:12.034Z,56.30
2018-06-09T10:12:15.688Z,56.00
2018-06-09T10:16:19.357Z,55.60
2018-06-09T10:20:23.035Z,56.00
2018-06-09T10:24:26.740Z,55.70
2018-06-09T10:28:30.374Z,55.60
2018-06-09T10:32:34.049Z,55.60
2018-06-09T10:36:37.701Z,55.60
2018-06-09T10:40:41.363Z,55.90
2018-06-09T10:44:45.047Z,55.80
2018-06-09T10:48:48.783Z,55.80
2018-06-09T10:52:52.500Z,55.90
2018-06-09T10:56:56.222Z,56.00
2018-06-09T11:00:59.904Z,55.10
2018-06-09T11:05:03.567Z,55.50
2018-06-09T11:09:07.818Z,55.10
2018-06-09T11:13:11.468Z,55.40
2018-06-09T11:17:15.252Z,55.40
2018-06-09T11:21:18.923Z,55.50
2018-06-09T11:25:22.574Z,55.80
2018-06-09T11:29:26.223Z,55.90
2018-06-09T11:33:29.876Z,55.40
2018-06-09T11:37:33.531Z,54.80
2018-06-09T11:41:37.511Z,55.10
2018-06-09T11:45:41.168Z,55.10
2018-06-09T11:49:44.790Z,54.40
2018-06-09T11:53:48.438Z,53.70
2018-06-09T11:57:52.080Z,53.40
2018-06-09T12:01:55.748Z,53.80
2018-06-09T12:05:59.407Z,54.30
2018-06-09T12:10:03.077Z,55.10
2018-06-09T12:14:06.744Z,53.70
2018-06-09T12:18:10.458Z,54.50
2018-06-09T12:26:17.480Z,53.70
2018-06-09T12:30:21.107Z,54.10
2018-06-09T12:34:24.799Z,54.20
2018-06-09T12:38:28.454Z,54.70
2018-06-09T12:42:32.083Z,54.30
2018-06-09T12:50:30.111Z,51.10
2018-06-09T12:54:33.759Z,54.00
2018-06-09T12:58:37.403Z,54.30
2018-06-09T13:02:41.091Z,54.50
2018-06-09T13:06:44.775Z,54.00
2018-06-09T13:14:38.430Z,52.30
2018-06-09T13:18:42.058Z,53.10
2018-06-09T13:22:45.722Z,51.90
2018-06-09T13:26:49.353Z,52.90
2018-06-09T13:30:53.023Z,52.80
2018-06-09T13:34:56.679Z,53.00
2018-06-09T13:39:00.335Z,52.70
2018-06-09T13:43:04.206Z,53.00
2018-06-09T13:47:07.865Z,52.50
2018-06-09T13:51:11.499Z,52.70
2018-06-09T13:55:15.123Z,52.60
2018-06-09T13:59:18.751Z,52.60
2018-06-09T14:03:22.403Z,51.90
2018-06-09T14:07:26.100Z,52.30
2018-06-09T14:11:29.734Z,49.20
2018-06-09T14:15:33.411Z,51.60
2018-06-09T14:19:37.131Z,51.70
2018-06-09T14:23:40.782Z,51.50
2018-06-09T14:27:44.455Z,51.00
2018-06-09T14:35:51.555Z,49.60
2018-06-09T14:39:55.200Z,50.70
2018-06-09T14:43:58.840Z,46.70
2018-06-09T14:48:02.482Z,48.30
2018-06-09T14:52:06.208Z,51.50
2018-06-09T14:56:10.346Z,48.60
2018-06-09T15:00:14.017Z,50.60
2018-06-09T15:12:18.466Z,50.40
2018-06-09T15:16:22.159Z,50.30
2018-06-09T15:20:25.815Z,48.80
2018-06-09T15:24:29.520Z,48.20
2018-06-09T15:28:33.181Z,47.20
2018-06-09T15:32:36.805Z,48.10
2018-06-09T15:36:40.597Z,47.00
2018-06-09T15:40:44.240Z,46.70
2018-06-09T15:44:47.882Z,47.80
2018-06-09T15:48:51.535Z,46.90
2018-06-09T15:52:55.167Z,44.90
2018-06-09T15:56:58.816Z,46.30
2018-06-09T16:01:02.466Z,47.20
2018-06-09T16:05:06.170Z,47.50
2018-06-09T16:09:10.021Z,46.20
2018-06-09T16:13:13.526Z,45.80
2018-06-09T16:17:17.183Z,46.20
2018-06-09T16:21:20.836Z,45.90
2018-06-09T16:25:24.509Z,46.50
2018-06-09T16:29:28.168Z,45.60
2018-06-09T16:33:31.786Z,46.00
2018-06-09T16:37:35.467Z,46.60
2018-06-09T16:41:39.122Z,45.50
2018-06-09T16:45:42.813Z,46.30
2018-06-09T16:49:46.476Z,44.70
2018-06-09T16:53:50.079Z,45.30
2018-06-09T16:57:53.748Z,46.20
2018-06-09T17:01:57.399Z,46.20
2018-06-09T17:06:01.062Z,46.50
2018-06-09T17:10:04.823Z,46.70
2018-06-09T17:14:08.524Z,46.70
2018-06-09T17:18:12.158Z,46.40
2018-06-09T17:22:15.788Z,46.80
2018-06-09T17:26:19.447Z,46.50
2018-06-09T17:30:23.058Z,46.70
2018-06-09T17:34:26.726Z,46.10
2018-06-09T17:38:30.383Z,46.40
2018-06-09T17:42:34.070Z,46.20
2018-06-09T17:46:37.724Z,46.50
2018-06-09T17:50:41.368Z,46.40
2018-06-09T17:54:45.097Z,46.80
2018-06-09T17:58:48.763Z,46.80
2018-06-09T18:02:52.408Z,46.80
2018-06-09T18:10:59.470Z,46.70
2018-06-09T18:15:03.272Z,46.50
2018-06-09T18:19:09.617Z,45.60
2018-06-09T18:23:13.261Z,44.20
2018-06-09T18:27:16.901Z,46.10
2018-06-09T18:31:20.581Z,45.50
2018-06-09T18:35:24.251Z,45.30
2018-06-09T18:39:27.940Z,44.20
2018-06-09T18:43:31.614Z,43.40
2018-06-09T18:47:35.266Z,45.80
2018-06-09T18:51:38.943Z,45.90
2018-06-09T18:55:42.601Z,46.20
2018-06-09T18:59:46.258Z,46.60
2018-06-09T19:03:50.005Z,46.90
2018-06-09T19:07:53.705Z,46.30
2018-06-09T19:11:57.323Z,46.60
2018-06-09T19:16:00.987Z,46.60
2018-06-09T19:20:04.708Z,46.70
2018-06-09T19:24:08.409Z,46.70
2018-06-09T19:28:12.149Z,46.40
2018-06-09T19:32:15.773Z,46.80
2018-06-09T19:36:19.417Z,47.00
2018-06-09T19:40:23.085Z,47.00
2018-06-09T19:44:26.737Z,47.00
2018-06-09T19:48:30.379Z,47.20
2018-06-09T19:56:36.164Z,45.90
2018-06-09T20:00:39.941Z,47.20
2018-06-09T20:04:43.612Z,47.30
2018-06-09T20:08:47.361Z,47.30
2018-06-09T20:12:50.992Z,47.30
2018-06-09T20:16:54.636Z,47.40
2018-06-09T20:20:58.274Z,47.60
2018-06-09T20:25:01.950Z,47.50
2018-06-09T20:29:05.611Z,47.30
2018-06-09T20:33:09.281Z,47.40
2018-06-09T20:37:12.996Z,48.00
2018-06-09T20:41:16.684Z,47.90
2018-06-09T20:45:20.340Z,47.90
2018-06-09T20:49:24.106Z,47.90
2018-06-09T20:53:27.756Z,47.90
2018-06-09T20:57:31.409Z,48.00
2018-06-09T21:01:35.072Z,47.90
2018-06-09T21:05:38.780Z,48.00
2018-06-09T21:09:42.480Z,48.50
2018-06-09T21:13:46.113Z,48.90
2018-06-09T21:17:49.816Z,48.90
2018-06-09T21:21:53.451Z,48.60
2018-06-09T21:25:57.107Z,48.60
2018-06-09T21:30:05.011Z,48.50
2018-06-09T21:34:25.202Z,48.60
2018-06-09T21:38:33.037Z,48.70
2018-06-09T21:42:40.893Z,48.60
2018-06-09T21:46:47.767Z,48.70
2018-06-09T21:54:45.001Z,47.80
2018-06-09T21:58:48.654Z,48.50
2018-06-09T22:02:52.315Z,48.60
2018-06-09T22:06:56.011Z,48.60
2018-06-09T22:10:59.736Z,48.90
2018-06-09T22:15:03.409Z,49.00
2018-06-09T22:19:07.129Z,48.90
2018-06-09T22:23:10.779Z,49.10
2018-06-09T22:27:14.461Z,49.20
2018-06-09T22:31:18.121Z,49.00
2018-06-09T22:35:21.792Z,49.10
2018-06-09T22:39:25.453Z,49.10
2018-06-09T22:43:29.215Z,49.10
2018-06-09T22:47:32.856Z,49.20
2018-06-09T22:51:36.480Z,49.30
2018-06-09T22:55:40.145Z,49.40
2018-06-09T22:59:43.798Z,49.50
2018-06-09T23:03:47.448Z,49.60
2018-06-09T23:07:51.131Z,49.70
2018-06-09T23:11:54.749Z,49.80
2018-06-09T23:15:58.409Z,49.90
2018-06-09T23:20:02.068Z,50.00
2018-06-09T23:24:05.784Z,50.10
2018-06-09T23:28:09.442Z,50.00
2018-06-09T23:32:13.053Z,50.30
2018-06-09T23:36:16.701Z,50.60
2018-06-09T23:40:20.357Z,51.50
2018-06-09T23:44:24.039Z,51.60
2018-06-09T23:48:27.710Z,50.80
2018-06-09T23:52:31.342Z,50.80
2018-06-09T23:56:34.996Z,50.80
